Umbarger, TX

10:55 PM CDT on March 31, 2015 (GMT -0500)
Hereford Municipal | | Change Station
CLOSE
Current Station
Airport
Location: Hereford,
Elevation: 3786 ft
Nearby Weather Stations
Active Advisory: Fire Weather Watch

Elev 3786 ft 34.86 °N, 102.33 °W | Updated 20 minutes ago

Clear
Clear
64 °F
Feels Like 64 °F
N
10
Wind Variable Wind from SSW

Today
High -- | Low -- °F
--% Chance of Precip.
Yesterday
High -- | Low -- °F
Precip. -- in
7:36 AM 8:07 PM
Waxing Gibbous, 90% visible
Pressure 29.91 in
Visibility 10.0 miles
Clouds Clear
Dew Point 40 °F
Humidity 42%
Rainfall 0.00 in
Snow Depth Not available.
UV 0 out of 12
Pollen 11.00 out of 12
Air Quality Not available.
Flu Activity Not available.
METAR KHRX 010335Z AUTO 21009KT 10SM CLR 18/05 A2991 RMK AO2 T01770045

More Conditions Fewer Conditions

Pressure 29.91 in
Visibility 10.0 miles
Clouds Clear
Dew Point 40 °F
Humidity 42%
Rainfall 0.00 in
Snow Depth Not available.
UV 0 out of 12
Pollen 11.00 out of 12
Air Quality Not available.
Flu Activity Not available.
METAR KHRX 010335Z AUTO 21009KT 10SM CLR 18/05 A2991 RMK AO2 T01770045

More Conditions Fewer Conditions

10-Day Weather Forecast

Almanac

Astronomy

Mar. 31, 2015 Rise Set
Actual Time
Civil Twilight
Nautical Twilight
Astronomical Twilight
Moon
Length of Visible Light
Length of Day
Tomorrow will be .
, % of the Moon is Illuminated

Today's Extremes

State Highs State Lows

Community

WunderPhotos

Upload Photos

1,809,900 photos uploaded!

WunderBlogs® & News

Nearby

Air Quality

  Air Quality AQ Index Pollutant
Not available.

Snow Depth

Station Depth Elevation

Earthquake Activity

City Distance Mag. Time & Date
Minimum magnitude displayed is 2.5.

Coastal Water Temperatures

Place Temperature

Stations

Nearby Weather Stations

Station Location Temp. Windchill Dew Point Humidity Wind Precip. Elev Updated Type
                   
Fire Weather Watch
Statement as of 3:40 PM CDT on March 31, 2015

... Fire Weather Watch in effect from Wednesday afternoon through
Wednesday evening for strong winds and low relative humidity for
the western and central Texas and Oklahoma panhandles...

The National Weather Service in Amarillo has issued a Fire
Weather Watch for strong winds and low relative humidity... which
is in effect from Wednesday afternoon through Wednesday evening.

* Affected area... in Oklahoma... Cimarron and Texas. In Texas...
Dallam... Sherman... Hansford... Hartley... Moore... Hutchinson...
Oldham... Potter... Carson... Deaf Smith... Randall and Armstrong.

* 20 foot winds... southwest at 15 to 25 mph with higher gusts.

* Relative humidity... 8 to 15 percent.

* Timing... noon through 8 PM CDT Wednesday.

Precautionary/preparedness actions...

A Fire Weather Watch means that the potential for critical fire
weather conditions exists. Listen for later forecasts and
possible red flag warnings.



For more information from the National Weather Service visit...
http://www.Weather.Gov/Ama (all lower case)